Time;durP1;ratioP1;P1;durP2;ratioP2;P2;SDS_P1;SDS_P2;PMS_P1;PMS_P2;Temp;Humidity;BMP_temperature;BMP_pressure;BME280_temperature;BME280_humidity;BME280_pressure;Samples;Min_cycle;Max_cycle;Signal;HPM_P1;HPM_P2
2024/03/20 00:00:22;;;;;;;8.50;7.37;;;14.00;99.90;;;;;;5015509;28;20181;-70
2024/03/20 00:02:48;;;;;;;7.03;6.03;;;14.00;99.90;;;;;;5012137;28;20193;-70
2024/03/20 00:05:13;;;;;;;8.67;7.33;;;13.90;99.90;;;;;;5012714;28;20275;-70
2024/03/20 00:07:39;;;;;;;8.70;7.37;;;14.00;99.90;;;;;;5015509;28;20369;-70
2024/03/20 00:10:07;;;;;;;10.47;7.33;;;13.90;99.90;;;;;;5014253;28;20185;-70
2024/03/20 00:12:33;;;;;;;11.20;6.70;;;13.90;99.90;;;;;;5012581;28;20438;-70
2024/03/20 00:14:59;;;;;;;8.53;6.10;;;13.90;99.90;;;;;;5015061;28;20518;-70
2024/03/20 00:17:25;;;;;;;7.57;6.43;;;13.90;99.90;;;;;;5017745;28;20585;-70
2024/03/20 00:19:50;;;;;;;10.37;6.40;;;13.90;99.90;;;;;;5015354;28;20200;-69
2024/03/20 00:22:17;;;;;;;7.00;5.80;;;13.90;99.90;;;;;;5010028;28;20204;-70
2024/03/20 00:24:42;;;;;;;9.03;6.70;;;13.80;99.90;;;;;;5013194;28;20200;-70
2024/03/20 00:27:08;;;;;;;6.90;6.20;;;13.80;99.90;;;;;;5016273;28;20414;-69
2024/03/20 00:29:33;;;;;;;8.23;6.63;;;13.80;99.90;;;;;;5011844;28;20634;-70
2024/03/20 00:31:59;;;;;;;6.93;6.17;;;13.80;99.90;;;;;;5008900;28;20195;-69
2024/03/20 00:34:26;;;;;;;6.80;5.87;;;13.80;99.90;;;;;;5012965;28;20196;-69
2024/03/20 00:36:51;;;;;;;7.20;6.50;;;13.80;99.90;;;;;;5012028;28;20184;-69
2024/03/20 00:39:18;;;;;;;8.50;6.30;;;13.70;99.90;;;;;;5007596;28;20474;-70
2024/03/20 00:41:45;;;;;;;9.73;5.53;;;13.70;99.90;;;;;;5013201;28;20180;-69
2024/03/20 00:44:11;;;;;;;6.40;5.70;;;13.70;99.90;;;;;;5015478;28;20431;-69
2024/03/20 00:46:37;;;;;;;9.43;6.10;;;13.70;99.90;;;;;;5013037;28;20411;-69
2024/03/20 00:49:03;;;;;;;8.23;5.53;;;13.70;99.90;;;;;;5009355;28;20223;-69
2024/03/20 00:51:28;;;;;;;5.40;4.90;;;13.60;99.90;;;;;;5015615;28;20273;-71
2024/03/20 00:53:54;;;;;;;7.60;5.00;;;13.60;99.90;;;;;;5007320;28;20659;-70
2024/03/20 00:56:20;;;;;;;7.73;5.80;;;13.60;99.90;;;;;;5015298;28;20230;-69
2024/03/20 00:58:46;;;;;;;10.53;6.47;;;13.60;99.90;;;;;;5010279;28;20796;-70
2024/03/20 01:01:13;;;;;;;7.63;5.90;;;13.50;99.90;;;;;;5013990;28;20177;-71
2024/03/20 01:03:38;;;;;;;7.97;5.70;;;13.50;99.90;;;;;;5008958;28;20453;-70
2024/03/20 01:06:04;;;;;;;6.63;5.40;;;13.50;99.90;;;;;;5009950;28;20427;-69
2024/03/20 01:08:29;;;;;;;6.27;4.90;;;13.50;99.90;;;;;;5012884;28;20544;-69
2024/03/20 01:10:55;;;;;;;6.10;5.40;;;13.40;99.90;;;;;;5011359;28;20601;-69
2024/03/20 01:13:22;;;;;;;7.50;5.77;;;13.40;99.90;;;;;;5011611;28;20184;-69
2024/03/20 01:15:51;;;;;;;7.80;5.90;;;13.30;99.90;;;;;;5011580;28;20205;-69
2024/03/20 01:18:17;;;;;;;6.43;5.33;;;13.30;99.90;;;;;;5013973;28;20463;-70
2024/03/20 01:20:43;;;;;;;9.20;5.70;;;13.20;99.90;;;;;;5009154;28;21150;-69
2024/03/20 01:23:09;;;;;;;8.00;6.10;;;13.20;99.90;;;;;;5014500;28;20197;-70
2024/03/20 01:25:35;;;;;;;8.40;5.70;;;13.20;99.90;;;;;;5012464;28;20840;-70
2024/03/20 01:28:00;;;;;;;6.93;5.67;;;13.10;99.90;;;;;;5016281;28;20230;-69
2024/03/20 01:30:26;;;;;;;6.83;4.77;;;13.10;99.90;;;;;;5013632;28;20965;-71
2024/03/20 01:32:51;;;;;;;6.03;5.33;;;13.10;99.90;;;;;;5014744;28;20189;-70
2024/03/20 01:35:18;;;;;;;6.90;5.30;;;13.10;99.90;;;;;;5012459;28;20209;-70
2024/03/20 01:37:44;;;;;;;6.93;5.07;;;13.00;99.90;;;;;;5011189;28;20725;-69
2024/03/20 01:40:10;;;;;;;5.43;4.70;;;13.00;99.90;;;;;;5012637;28;20455;-70
2024/03/20 01:42:36;;;;;;;7.07;5.27;;;13.00;99.90;;;;;;5007549;28;20728;-70
2024/03/20 01:45:17;;;;;;;7.13;5.43;;;13.00;99.90;;;;;;5014909;28;20435;-69
2024/03/20 01:47:44;;;;;;;8.07;6.43;;;13.00;99.90;;;;;;5013950;28;20185;-68
2024/03/20 01:50:11;;;;;;;7.00;6.30;;;12.90;99.90;;;;;;5008545;28;21005;-69
2024/03/20 01:52:52;;;;;;;7.63;6.70;;;12.90;99.90;;;;;;5014173;28;20456;-69
2024/03/20 01:55:23;;;;;;;8.43;6.23;;;12.80;99.90;;;;;;5013858;28;20462;-69
2024/03/20 01:57:49;;;;;;;8.40;6.03;;;12.80;99.90;;;;;;5011705;28;20593;-70
2024/03/20 02:00:21;;;;;;;8.13;6.70;;;12.80;99.90;;;;;;5019132;28;20423;-69
2024/03/20 02:02:49;;;;;;;7.37;5.50;;;12.70;99.90;;;;;;5010538;28;20443;-69
2024/03/20 02:05:15;;;;;;;11.07;5.97;;;12.70;99.90;;;;;;5009181;28;20976;-69
2024/03/20 02:07:40;;;;;;;9.10;6.13;;;12.70;99.90;;;;;;5013332;28;20428;-69
2024/03/20 02:10:06;;;;;;;8.17;6.00;;;12.70;99.90;;;;;;5016116;28;20199;-69
2024/03/20 02:12:32;;;;;;;11.10;6.80;;;12.70;99.90;;;;;;5012658;28;20644;-69
2024/03/20 02:15:04;;;;;;;8.07;5.97;;;12.60;99.90;;;;;;5008497;28;20447;-69
2024/03/20 02:17:29;;;;;;;12.60;5.50;;;12.60;99.90;;;;;;5010688;28;20666;-69
2024/03/20 02:19:55;;;;;;;8.90;5.67;;;12.60;99.90;;;;;;5009179;28;20510;-69
2024/03/20 02:22:20;;;;;;;12.00;5.20;;;12.60;99.90;;;;;;5014497;28;20184;-69
2024/03/20 02:24:46;;;;;;;6.20;5.37;;;12.60;99.90;;;;;;5009497;28;20596;-70
2024/03/20 02:27:11;;;;;;;9.50;5.67;;;12.60;99.90;;;;;;5015968;28;20693;-69
2024/03/20 02:29:37;;;;;;;6.03;5.20;;;12.50;99.90;;;;;;5012213;28;20191;-69
2024/03/20 02:32:03;;;;;;;7.13;5.43;;;12.50;99.90;;;;;;5010836;28;20190;-69
2024/03/20 02:34:28;;;;;;;6.53;5.43;;;12.50;99.90;;;;;;5012950;28;20262;-69
2024/03/20 02:36:54;;;;;;;7.10;5.23;;;12.50;99.90;;;;;;5012586;28;20440;-70
2024/03/20 02:39:21;;;;;;;8.70;5.80;;;12.50;99.90;;;;;;5009298;28;20208;-70
2024/03/20 02:41:47;;;;;;;9.00;5.43;;;12.50;99.90;;;;;;5015360;28;20537;-69
2024/03/20 02:44:14;;;;;;;7.80;5.90;;;12.50;99.90;;;;;;5016446;28;20764;-69
2024/03/20 02:46:40;;;;;;;7.90;6.60;;;12.50;99.90;;;;;;5016655;28;20489;-69
2024/03/20 02:49:05;;;;;;;8.87;7.63;;;12.50;99.90;;;;;;5009825;28;20472;-70
2024/03/20 02:51:31;;;;;;;8.70;7.40;;;12.40;99.90;;;;;;5011510;28;20642;-69
2024/03/20 02:53:57;;;;;;;10.63;7.50;;;12.40;99.90;;;;;;5017506;28;20306;-69
2024/03/20 02:56:23;;;;;;;10.27;7.67;;;12.40;99.90;;;;;;5014830;28;20192;-69
2024/03/20 02:58:48;;;;;;;11.50;7.60;;;12.30;99.90;;;;;;5006957;28;20461;-69
2024/03/20 03:01:14;;;;;;;9.43;7.90;;;12.30;99.90;;;;;;5014116;28;20181;-69
2024/03/20 03:03:39;;;;;;;10.63;7.20;;;12.30;99.90;;;;;;5016022;28;20180;-69
2024/03/20 03:06:05;;;;;;;9.90;8.00;;;12.30;99.90;;;;;;5014420;28;20178;-69
2024/03/20 03:08:30;;;;;;;11.73;7.93;;;12.30;99.90;;;;;;5018465;28;20186;-69
2024/03/20 03:10:56;;;;;;;16.07;9.67;;;12.20;99.90;;;;;;5010365;28;20177;-69
2024/03/20 03:13:22;;;;;;;12.67;8.90;;;12.20;99.90;;;;;;5013546;28;20719;-69
2024/03/20 03:15:47;;;;;;;11.83;8.50;;;12.20;99.90;;;;;;5012561;28;20576;-69
2024/03/20 03:18:13;;;;;;;10.23;8.50;;;12.20;99.90;;;;;;5011826;28;20576;-69
2024/03/20 03:20:41;;;;;;;10.70;8.67;;;12.10;99.90;;;;;;5009118;28;20180;-69
2024/03/20 03:23:07;;;;;;;9.70;8.40;;;12.10;99.90;;;;;;5010455;28;20259;-69
2024/03/20 03:25:32;;;;;;;9.33;7.97;;;12.10;99.90;;;;;;5016614;28;20515;-69
2024/03/20 03:27:58;;;;;;;8.50;7.70;;;12.10;99.90;;;;;;5022374;28;20184;-69
2024/03/20 03:30:24;;;;;;;9.03;7.37;;;12.10;99.90;;;;;;5017351;28;20181;-69
2024/03/20 03:32:49;;;;;;;13.43;7.13;;;12.00;99.90;;;;;;5016540;28;20193;-69
2024/03/20 03:35:15;;;;;;;8.53;7.50;;;12.00;99.90;;;;;;5017943;28;20724;-69
2024/03/20 03:37:40;;;;;;;9.70;7.37;;;12.00;99.90;;;;;;5013536;28;20254;-69
2024/03/20 03:40:10;;;;;;;10.10;6.90;;;12.00;99.90;;;;;;5008137;28;20647;-69
2024/03/20 03:42:36;;;;;;;9.67;7.30;;;12.00;99.90;;;;;;5011289;28;20230;-69
2024/03/20 03:45:02;;;;;;;7.67;6.80;;;12.00;99.90;;;;;;5013213;28;20443;-69
2024/03/20 03:47:31;;;;;;;8.80;6.77;;;12.00;99.90;;;;;;5010574;28;20419;-69
2024/03/20 03:49:56;;;;;;;11.17;7.03;;;11.90;99.90;;;;;;5010329;28;20407;-69
2024/03/20 03:52:22;;;;;;;8.50;5.93;;;12.00;99.90;;;;;;5013789;28;20910;-69
2024/03/20 03:54:48;;;;;;;7.00;5.70;;;11.90;99.90;;;;;;5011736;28;20200;-69
2024/03/20 03:57:13;;;;;;;7.90;6.00;;;11.90;99.90;;;;;;5011671;28;20177;-69
2024/03/20 03:59:39;;;;;;;9.07;6.60;;;11.90;99.90;;;;;;5012448;28;20220;-69
2024/03/20 04:02:05;;;;;;;7.23;5.13;;;11.90;99.90;;;;;;5009743;28;20189;-69
2024/03/20 04:04:30;;;;;;;7.10;5.60;;;11.80;99.90;;;;;;5009139;28;20196;-68
2024/03/20 04:06:56;;;;;;;5.63;5.13;;;11.80;99.90;;;;;;5011641;28;20189;-69
2024/03/20 04:09:21;;;;;;;9.73;6.33;;;11.80;99.90;;;;;;5008976;28;20199;-69
2024/03/20 04:11:47;;;;;;;6.70;5.37;;;11.80;99.90;;;;;;5012511;28;20179;-69
2024/03/20 04:14:14;;;;;;;8.77;6.17;;;11.80;99.90;;;;;;5007616;28;20236;-69
2024/03/20 04:16:40;;;;;;;6.20;5.20;;;11.80;99.90;;;;;;5013778;28;20195;-69
2024/03/20 04:19:06;;;;;;;7.47;5.57;;;11.80;99.90;;;;;;5010560;28;20460;-69
2024/03/20 04:21:31;;;;;;;7.63;5.50;;;11.80;99.90;;;;;;5013720;28;20255;-69
2024/03/20 04:23:57;;;;;;;7.80;5.20;;;11.70;99.90;;;;;;5011518;28;20307;-69
2024/03/20 04:26:24;;;;;;;6.93;5.33;;;11.70;99.90;;;;;;5010503;28;20204;-70
2024/03/20 04:28:49;;;;;;;7.93;4.83;;;11.70;99.90;;;;;;5010866;28;20269;-69
2024/03/20 04:31:15;;;;;;;5.77;4.83;;;11.70;99.90;;;;;;5018649;28;20510;-69
2024/03/20 04:33:41;;;;;;;6.20;4.93;;;11.60;99.90;;;;;;5015826;28;20219;-69
2024/03/20 04:36:08;;;;;;;8.07;4.37;;;11.60;99.90;;;;;;5017910;28;20946;-69
2024/03/20 04:38:34;;;;;;;9.60;4.67;;;11.60;99.90;;;;;;5015186;28;20251;-69
2024/03/20 04:41:00;;;;;;;6.30;5.03;;;11.60;99.90;;;;;;5014529;28;20435;-69
2024/03/20 04:43:25;;;;;;;7.00;4.83;;;11.60;99.90;;;;;;5017624;28;20416;-70
2024/03/20 04:45:51;;;;;;;6.80;5.37;;;11.60;99.90;;;;;;5016357;28;20204;-70
2024/03/20 04:48:17;;;;;;;5.80;4.97;;;11.60;99.90;;;;;;5013542;28;20276;-70
2024/03/20 04:50:42;;;;;;;5.50;4.50;;;11.50;99.90;;;;;;5013266;28;20187;-69
2024/03/20 04:53:08;;;;;;;8.60;5.03;;;11.50;99.90;;;;;;5016925;28;20180;-69
2024/03/20 04:55:33;;;;;;;6.30;5.07;;;11.50;99.90;;;;;;5016991;28;20291;-69
2024/03/20 04:57:59;;;;;;;6.47;4.43;;;11.50;99.90;;;;;;5012603;28;20295;-69
2024/03/20 05:00:25;;;;;;;7.17;5.47;;;11.40;99.90;;;;;;5011604;28;20185;-70
2024/03/20 05:02:51;;;;;;;9.60;6.40;;;11.50;99.90;;;;;;5020250;28;20191;-70
2024/03/20 05:05:16;;;;;;;11.60;7.20;;;11.50;99.90;;;;;;5013368;28;20230;-69
2024/03/20 05:07:42;;;;;;;8.20;6.33;;;11.40;99.90;;;;;;5022568;28;20177;-69
2024/03/20 05:10:08;;;;;;;8.50;6.13;;;11.40;99.90;;;;;;5013853;28;20235;-69
2024/03/20 05:12:34;;;;;;;8.80;6.50;;;11.40;99.90;;;;;;5017585;28;20189;-69
2024/03/20 05:15:00;;;;;;;9.93;7.60;;;11.40;99.90;;;;;;5016205;28;20652;-69
2024/03/20 05:17:26;;;;;;;10.37;7.00;;;11.40;99.90;;;;;;5014960;28;20439;-69
2024/03/20 05:19:52;;;;;;;10.10;7.17;;;11.40;99.90;;;;;;5009495;28;20528;-69
2024/03/20 05:22:17;;;;;;;8.60;7.70;;;11.30;99.90;;;;;;5014155;28;20992;-69
2024/03/20 05:24:48;;;;;;;8.83;7.37;;;11.30;99.90;;;;;;5013408;28;20204;-69
2024/03/20 05:27:14;;;;;;;9.07;6.93;;;11.20;99.90;;;;;;5018656;28;20723;-69
2024/03/20 05:29:39;;;;;;;8.87;7.53;;;11.20;99.90;;;;;;5022347;28;20502;-69
2024/03/20 05:32:05;;;;;;;9.70;6.63;;;11.20;99.90;;;;;;5016690;28;20187;-70
2024/03/20 05:34:31;;;;;;;13.30;8.67;;;11.10;99.90;;;;;;5011130;28;20800;-70
2024/03/20 05:36:56;;;;;;;11.30;7.57;;;11.10;99.90;;;;;;5017863;28;20807;-69
2024/03/20 05:39:23;;;;;;;8.33;7.07;;;11.10;99.90;;;;;;5012664;28;20595;-70
2024/03/20 05:41:48;;;;;;;11.60;7.93;;;11.10;99.90;;;;;;5018824;28;20702;-69
2024/03/20 05:44:16;;;;;;;10.20;6.80;;;11.10;99.90;;;;;;5012161;28;20535;-69
2024/03/20 05:46:44;;;;;;;8.50;6.83;;;11.10;99.90;;;;;;5011578;28;20247;-69
2024/03/20 05:49:09;;;;;;;16.27;6.97;;;11.10;99.90;;;;;;5010579;28;20517;-69
2024/03/20 05:51:35;;;;;;;11.23;8.13;;;11.00;99.90;;;;;;5015945;28;20699;-69
2024/03/20 05:54:01;;;;;;;7.80;7.00;;;11.00;99.90;;;;;;5008529;28;20213;-69
2024/03/20 05:56:26;;;;;;;12.03;7.30;;;11.00;99.90;;;;;;5008281;28;20613;-69
2024/03/20 05:58:52;;;;;;;9.13;7.87;;;11.00;99.90;;;;;;5014259;28;20949;-69
2024/03/20 06:01:18;;;;;;;10.30;7.80;;;11.00;99.90;;;;;;5010885;28;20189;-69
2024/03/20 06:03:43;;;;;;;9.90;7.73;;;11.00;99.90;;;;;;5014916;28;20628;-69
2024/03/20 06:06:09;;;;;;;14.17;7.93;;;11.00;99.90;;;;;;5009256;28;20730;-69
2024/03/20 06:08:34;;;;;;;9.80;8.03;;;11.00;99.90;;;;;;5020420;28;20819;-69
2024/03/20 06:11:01;;;;;;;13.10;9.07;;;10.90;99.90;;;;;;5013228;28;20559;-69
2024/03/20 06:13:27;;;;;;;13.47;8.43;;;11.00;99.90;;;;;;5008438;28;20257;-69
2024/03/20 06:15:53;;;;;;;12.70;9.20;;;11.00;99.90;;;;;;5012388;28;20459;-69
2024/03/20 06:18:19;;;;;;;11.07;9.40;;;11.00;99.90;;;;;;5013280;28;20468;-69
2024/03/20 06:20:44;;;;;;;12.20;9.17;;;11.00;99.90;;;;;;5015316;28;20259;-69
2024/03/20 06:23:10;;;;;;;9.87;8.87;;;11.00;99.90;;;;;;5011822;28;20259;-69
2024/03/20 06:25:36;;;;;;;11.40;9.03;;;11.00;99.90;;;;;;5024119;28;20196;-69
2024/03/20 06:28:01;;;;;;;11.60;8.80;;;11.00;99.90;;;;;;5010895;28;20180;-69
2024/03/20 06:30:27;;;;;;;12.20;9.33;;;11.00;99.90;;;;;;5011548;28;20211;-69
2024/03/20 06:32:53;;;;;;;10.10;8.63;;;11.00;99.90;;;;;;5014153;28;20212;-69
2024/03/20 06:35:19;;;;;;;8.70;7.63;;;11.00;99.90;;;;;;5012419;28;20200;-69
2024/03/20 06:37:45;;;;;;;9.33;7.60;;;11.00;99.90;;;;;;5010974;28;20462;-69
2024/03/20 06:40:11;;;;;;;8.23;7.30;;;11.10;99.90;;;;;;5013195;28;20177;-69
2024/03/20 06:42:40;;;;;;;7.90;7.10;;;11.10;99.90;;;;;;5013259;28;20502;-69
2024/03/20 06:45:06;;;;;;;9.13;7.97;;;11.10;99.90;;;;;;5011610;28;20974;-69
2024/03/20 06:47:32;;;;;;;12.87;9.23;;;11.10;99.90;;;;;;5012839;28;20510;-69
2024/03/20 06:49:59;;;;;;;10.50;8.20;;;11.10;99.90;;;;;;5012432;28;20768;-69
2024/03/20 06:52:25;;;;;;;9.13;7.90;;;11.20;99.90;;;;;;5014523;28;20419;-69
2024/03/20 06:54:51;;;;;;;10.20;8.60;;;11.20;99.90;;;;;;5010601;28;20480;-69
2024/03/20 06:57:18;;;;;;;11.50;9.10;;;11.20;99.90;;;;;;5010626;28;20417;-69
2024/03/20 06:59:47;;;;;;;12.03;9.47;;;11.30;99.90;;;;;;5009751;28;20495;-68
2024/03/20 07:02:13;;;;;;;12.20;10.23;;;11.40;99.90;;;;;;5016477;28;20411;-69
2024/03/20 07:04:39;;;;;;;10.47;9.13;;;11.50;99.90;;;;;;5017019;28;20441;-69
2024/03/20 07:07:05;;;;;;;12.10;10.27;;;11.50;99.90;;;;;;5009090;28;20931;-69
2024/03/20 07:09:31;;;;;;;13.97;11.57;;;11.50;99.90;;;;;;5010931;28;20703;-69
2024/03/20 07:12:00;;;;;;;13.13;11.07;;;11.60;99.90;;;;;;5012488;28;20767;-69
2024/03/20 07:14:27;;;;;;;10.73;9.67;;;11.60;99.90;;;;;;5010372;28;20432;-69
2024/03/20 07:16:53;;;;;;;11.37;10.27;;;11.60;99.90;;;;;;5008036;28;20454;-69
2024/03/20 07:19:18;;;;;;;10.80;9.17;;;11.70;99.90;;;;;;5002713;28;20516;-69
2024/03/20 07:21:44;;;;;;;12.27;9.50;;;11.70;99.90;;;;;;5013964;28;20255;-69
2024/03/20 07:24:10;;;;;;;11.13;10.00;;;11.80;99.90;;;;;;5007993;28;20263;-69
2024/03/20 07:26:37;;;;;;;12.03;10.83;;;11.80;99.90;;;;;;5010011;28;20189;-69
2024/03/20 07:29:10;;;;;;;11.33;9.77;;;11.90;99.90;;;;;;5009019;28;20454;-71
2024/03/20 07:31:37;;;;;;;12.73;10.47;;;11.90;99.90;;;;;;5013542;28;20411;-69
2024/03/20 07:34:03;;;;;;;11.73;9.90;;;11.90;99.90;;;;;;5015327;28;20443;-69
2024/03/20 07:36:29;;;;;;;10.30;9.20;;;12.00;99.90;;;;;;5006635;28;20436;-69
2024/03/20 07:38:55;;;;;;;10.57;9.47;;;12.10;99.90;;;;;;5015631;28;20210;-69
2024/03/20 07:41:22;;;;;;;10.57;8.80;;;12.10;99.90;;;;;;5012249;28;20510;-69
2024/03/20 07:43:47;;;;;;;14.60;8.70;;;12.10;99.90;;;;;;5008855;28;20895;-71
2024/03/20 07:46:13;;;;;;;9.30;8.30;;;12.20;99.90;;;;;;5009432;28;20419;-70
2024/03/20 07:48:44;;;;;;;11.47;9.37;;;12.20;99.90;;;;;;5011857;28;20192;-69
2024/03/20 07:51:10;;;;;;;11.00;9.83;;;12.30;99.90;;;;;;5009058;28;20180;-69
2024/03/20 07:53:35;;;;;;;9.73;8.50;;;12.40;99.90;;;;;;5012294;28;20412;-69
2024/03/20 07:56:01;;;;;;;10.10;8.60;;;12.40;99.90;;;;;;5015528;28;20189;-69
2024/03/20 07:58:26;;;;;;;16.73;10.10;;;12.40;99.90;;;;;;5010372;28;20208;-69
2024/03/20 08:00:53;;;;;;;8.60;7.50;;;12.50;99.90;;;;;;5009727;28;20174;-69
2024/03/20 08:03:19;;;;;;;8.60;7.77;;;12.60;99.90;;;;;;5010348;28;20562;-69
2024/03/20 08:05:45;;;;;;;9.13;8.17;;;12.60;99.90;;;;;;5015649;28;20534;-69
2024/03/20 08:08:10;;;;;;;10.60;7.80;;;12.60;99.90;;;;;;5012350;28;20850;-69
2024/03/20 08:10:36;;;;;;;10.93;7.20;;;12.60;99.90;;;;;;5014034;28;20265;-69
2024/03/20 08:13:02;;;;;;;10.53;7.80;;;12.60;99.90;;;;;;5015118;28;20188;-69
2024/03/20 08:15:28;;;;;;;8.57;7.47;;;12.70;99.90;;;;;;5014035;28;20355;-69
2024/03/20 08:17:54;;;;;;;9.23;7.13;;;12.80;99.90;;;;;;5014868;28;20473;-69
2024/03/20 08:20:19;;;;;;;8.27;7.40;;;12.80;99.90;;;;;;5012551;28;20411;-68
2024/03/20 08:22:45;;;;;;;9.63;7.53;;;12.90;99.90;;;;;;5013143;28;20181;-69
2024/03/20 08:25:11;;;;;;;10.70;7.30;;;13.00;99.90;;;;;;5008822;28;20738;-69
2024/03/20 08:27:37;;;;;;;8.20;7.37;;;12.90;99.90;;;;;;5016451;28;20180;-69
2024/03/20 08:30:07;;;;;;;9.93;7.80;;;13.10;99.90;;;;;;5012800;28;20419;-69
2024/03/20 08:32:34;;;;;;;9.00;8.07;;;13.20;99.90;;;;;;5014126;28;20177;-69
2024/03/20 08:35:01;;;;;;;13.57;9.33;;;13.30;99.90;;;;;;5016754;28;20859;-69
2024/03/20 08:37:27;;;;;;;10.03;9.03;;;13.30;99.90;;;;;;5016247;28;20489;-69
2024/03/20 08:39:53;;;;;;;9.13;8.20;;;13.40;99.90;;;;;;5012349;28;20444;-69
2024/03/20 08:42:18;;;;;;;7.50;6.80;;;13.60;99.90;;;;;;5016830;28;20180;-70
2024/03/20 08:44:44;;;;;;;9.10;7.07;;;13.60;99.90;;;;;;5017940;28;20200;-69
2024/03/20 08:47:10;;;;;;;10.73;7.70;;;13.50;99.90;;;;;;5016071;28;20188;-69
2024/03/20 08:49:39;;;;;;;9.40;7.50;;;13.50;99.90;;;;;;5011423;28;20185;-68
2024/03/20 08:52:07;;;;;;;12.27;7.67;;;13.60;99.90;;;;;;5010264;28;20495;-68
2024/03/20 08:54:40;;;;;;;13.43;8.00;;;13.70;99.90;;;;;;5014167;28;20440;-68
2024/03/20 08:57:07;;;;;;;8.53;7.60;;;13.90;99.90;;;;;;5014865;28;20415;-68
2024/03/20 08:59:33;;;;;;;10.50;9.20;;;14.00;99.90;;;;;;5013627;28;20494;-68
2024/03/20 09:02:00;;;;;;;8.90;6.73;;;13.90;99.90;;;;;;5016281;28;20836;-69
2024/03/20 09:04:25;;;;;;;9.60;7.50;;;13.80;99.90;;;;;;5015614;28;20815;-69
2024/03/20 09:06:51;;;;;;;8.40;7.60;;;13.90;99.90;;;;;;5015235;28;20466;-69
2024/03/20 09:09:17;;;;;;;8.80;7.40;;;13.90;99.90;;;;;;5013958;28;20245;-69
2024/03/20 09:11:42;;;;;;;9.53;8.07;;;13.90;99.90;;;;;;5014219;28;20188;-69
2024/03/20 09:14:08;;;;;;;9.13;7.53;;;14.00;99.90;;;;;;5012066;28;20369;-69
2024/03/20 09:16:34;;;;;;;8.20;7.40;;;14.00;99.90;;;;;;5014534;28;20674;-69
2024/03/20 09:18:59;;;;;;;8.20;6.80;;;14.10;99.90;;;;;;5014192;28;20855;-69
2024/03/20 09:21:25;;;;;;;8.60;7.67;;;14.10;99.90;;;;;;5011725;28;20185;-69
2024/03/20 09:23:51;;;;;;;9.23;7.30;;;14.10;99.90;;;;;;5014896;28;20989;-69
2024/03/20 09:26:17;;;;;;;10.00;8.40;;;14.10;99.90;;;;;;5013122;28;20599;-70
2024/03/20 09:28:43;;;;;;;8.63;7.67;;;14.20;99.90;;;;;;5018297;28;20446;-69
2024/03/20 09:31:08;;;;;;;11.33;7.40;;;14.20;99.90;;;;;;5015724;28;20180;-69
2024/03/20 09:33:34;;;;;;;10.53;8.30;;;14.30;99.90;;;;;;5005555;28;20900;-69
2024/03/20 09:35:59;;;;;;;10.43;8.37;;;14.30;99.90;;;;;;5014229;28;20219;-69
2024/03/20 09:38:25;;;;;;;9.40;7.90;;;14.30;99.90;;;;;;5012482;28;20594;-70
2024/03/20 09:40:51;;;;;;;10.40;7.73;;;14.50;99.90;;;;;;5014367;28;20215;-70
2024/03/20 09:43:18;;;;;;;10.97;8.00;;;14.70;99.90;;;;;;5012455;28;20726;-69
2024/03/20 09:45:43;;;;;;;10.63;9.07;;;14.70;99.90;;;;;;5015448;28;20231;-69
2024/03/20 09:48:10;;;;;;;12.57;8.60;;;14.70;99.90;;;;;;5012827;28;20439;-69
2024/03/20 09:50:38;;;;;;;11.53;8.30;;;14.80;99.90;;;;;;5013192;28;20806;-69
2024/03/20 09:53:05;;;;;;;10.13;8.50;;;14.90;99.90;;;;;;5007704;28;20423;-68
2024/03/20 09:55:34;;;;;;;8.70;7.80;;;15.10;99.90;;;;;;5010761;28;20456;-68
2024/03/20 09:58:00;;;;;;;9.63;8.63;;;15.30;99.90;;;;;;5014190;28;20544;-69
2024/03/20 10:00:27;;;;;;;10.17;8.37;;;15.40;99.90;;;;;;5013389;28;20462;-69
2024/03/20 10:02:56;;;;;;;12.47;9.60;;;15.40;99.90;;;;;;5013124;28;20420;-69
2024/03/20 10:05:22;;;;;;;9.47;8.50;;;15.50;99.90;;;;;;5016822;28;20528;-70
2024/03/20 10:07:49;;;;;;;11.57;9.07;;;15.70;99.90;;;;;;5019813;28;20415;-69
2024/03/20 10:10:16;;;;;;;9.77;8.53;;;15.90;99.90;;;;;;5010669;28;20176;-69
2024/03/20 10:12:45;;;;;;;12.63;9.80;;;16.10;99.90;;;;;;5018113;28;20423;-69
2024/03/20 10:15:11;;;;;;;10.83;9.10;;;16.30;99.90;;;;;;5009770;28;20452;-68
2024/03/20 10:17:41;;;;;;;10.20;9.13;;;16.50;99.90;;;;;;5015242;28;20446;-70
2024/03/20 10:20:25;;;;;;;21.47;12.27;;;16.70;99.90;;;;;;5008091;28;20421;-70
2024/03/20 10:22:51;;;;;;;11.00;9.80;;;16.90;99.90;;;;;;5008714;28;20830;-70
2024/03/20 10:25:17;;;;;;;9.73;8.70;;;17.00;99.90;;;;;;5013874;28;20538;-70
2024/03/20 10:27:48;;;;;;;12.40;9.03;;;17.10;99.90;;;;;;5009766;28;20176;-70
2024/03/20 10:30:21;;;;;;;12.93;10.60;;;17.20;99.90;;;;;;5013527;28;20935;-70
2024/03/20 10:32:51;;;;;;;11.57;9.60;;;17.30;99.90;;;;;;5013433;28;20412;-70
2024/03/20 10:35:20;;;;;;;11.23;7.97;;;17.30;99.90;;;;;;5011340;28;20439;-70
2024/03/20 10:37:47;;;;;;;11.00;9.53;;;17.30;99.90;;;;;;5010375;28;20829;-70
2024/03/20 10:40:20;;;;;;;10.80;8.70;;;17.40;99.90;;;;;;5012956;28;20416;-70
2024/03/20 10:42:48;;;;;;;9.73;8.60;;;17.50;99.90;;;;;;5015799;28;20493;-70
2024/03/20 10:45:15;;;;;;;9.00;7.43;;;17.50;99.90;;;;;;5010504;28;20838;-68
2024/03/20 10:47:41;;;;;;;10.73;8.50;;;17.60;99.90;;;;;;5016412;28;20412;-69
2024/03/20 10:50:16;;;;;;;9.60;8.17;;;17.60;99.90;;;;;;5014246;28;20432;-69
2024/03/20 10:52:43;;;;;;;9.57;8.57;;;17.70;99.90;;;;;;5015827;28;20441;-69
2024/03/20 10:55:13;;;;;;;10.77;7.90;;;17.70;99.90;;;;;;5010750;28;20439;-69
2024/03/20 10:57:39;;;;;;;8.67;7.17;;;17.70;99.90;;;;;;5012568;28;20408;-69
2024/03/20 11:00:09;;;;;;;9.70;7.37;;;17.70;99.90;;;;;;5012829;28;20497;-69
2024/03/20 11:02:37;;;;;;;12.20;8.87;;;17.70;99.90;;;;;;5010429;28;20451;-69
2024/03/20 11:05:23;;;;;;;8.73;7.10;;;17.80;99.90;;;;;;5010842;28;20432;-69
2024/03/20 11:07:49;;;;;;;8.50;6.37;;;17.90;99.90;;;;;;5012295;28;20419;-69
2024/03/20 11:10:20;;;;;;;7.33;6.10;;;18.00;99.90;;;;;;5011449;28;20926;-69
2024/03/20 11:12:47;;;;;;;8.23;7.37;;;18.20;99.90;;;;;;5014953;28;20170;-69
2024/03/20 11:15:18;;;;;;;15.10;7.40;;;18.20;99.90;;;;;;5013728;28;20853;-69
2024/03/20 11:17:49;;;;;;;7.37;6.23;;;18.30;99.90;;;;;;5011755;28;20450;-69
2024/03/20 11:20:35;;;;;;;10.43;7.53;;;18.40;99.90;;;;;;5011862;28;20860;-69
2024/03/20 11:23:07;;;;;;;11.30;6.67;;;18.50;99.90;;;;;;5004245;28;20995;-69
2024/03/20 11:25:37;;;;;;;8.00;6.27;;;18.60;99.90;;;;;;5010352;28;20925;-69
2024/03/20 11:28:03;;;;;;;7.50;6.70;;;18.70;99.90;;;;;;5009902;28;20443;-70
2024/03/20 11:30:28;;;;;;;6.50;5.60;;;18.80;99.90;;;;;;5008204;28;20422;-69
2024/03/20 11:32:54;;;;;;;15.77;7.83;;;19.00;99.90;;;;;;5004250;28;20420;-70
2024/03/20 11:35:23;;;;;;;9.10;7.70;;;19.10;99.90;;;;;;5007181;28;20204;-69
2024/03/20 11:37:49;;;;;;;8.50;6.70;;;19.30;99.90;;;;;;5012555;28;20431;-69
2024/03/20 11:40:15;;;;;;;9.30;6.17;;;19.40;99.90;;;;;;5016442;28;20423;-69
2024/03/20 11:42:41;;;;;;;8.30;6.07;;;19.60;99.90;;;;;;5013468;28;20815;-70
2024/03/20 11:45:10;;;;;;;7.43;5.30;;;19.80;99.90;;;;;;5019144;28;20492;-70
2024/03/20 11:47:37;;;;;;;6.20;5.23;;;20.00;99.90;;;;;;5012133;28;20251;-70
2024/03/20 11:50:03;;;;;;;8.13;5.60;;;20.20;99.90;;;;;;5018899;28;20980;-70
2024/03/20 11:52:28;;;;;;;6.43;5.43;;;20.30;99.90;;;;;;5015331;28;20464;-70
2024/03/20 11:54:55;;;;;;;9.17;6.17;;;20.50;99.90;;;;;;5011486;28;20442;-70
2024/03/20 11:57:23;;;;;;;10.60;5.90;;;20.70;99.90;;;;;;5012206;28;20184;-70
2024/03/20 11:59:51;;;;;;;6.33;5.30;;;20.70;99.90;;;;;;5014317;28;20481;-70
2024/03/20 12:02:19;;;;;;;7.50;6.30;;;21.00;99.90;;;;;;5011535;28;20438;-70
2024/03/20 12:04:45;;;;;;;6.07;5.43;;;21.30;99.90;;;;;;5016906;28;20450;-70
2024/03/20 12:07:32;;;;;;;5.77;4.73;;;21.60;99.90;;;;;;5012651;28;20449;-69
2024/03/20 12:09:57;;;;;;;8.57;7.43;;;22.30;99.90;;;;;;5012415;28;21224;-69
2024/03/20 12:12:27;;;;;;;5.50;4.27;;;23.80;99.90;;;;;;5010981;28;20496;-69
2024/03/20 12:14:54;;;;;;;6.80;4.30;;;25.20;99.90;;;;;;5017757;28;20205;-69
2024/03/20 12:17:22;;;;;;;5.80;5.30;;;26.60;99.90;;;;;;5015380;28;20424;-70
2024/03/20 12:19:48;;;;;;;11.20;8.00;;;28.10;99.90;;;;;;5012206;28;20556;-70
2024/03/20 12:22:15;;;;;;;6.53;5.40;;;29.30;99.90;;;;;;5018420;28;20430;-70
2024/03/20 12:24:41;;;;;;;4.50;4.10;;;30.40;94.50;;;;;;5015381;28;20879;-70
2024/03/20 12:27:16;;;;;;;4.87;4.43;;;31.30;90.60;;;;;;5014793;28;20966;-70
2024/03/20 12:29:42;;;;;;;4.00;3.70;;;32.10;82.70;;;;;;5018073;28;20765;-70
2024/03/20 12:32:08;;;;;;;5.57;3.23;;;33.00;72.90;;;;;;5017219;28;20465;-70
2024/03/20 12:34:34;;;;;;;4.93;4.03;;;33.80;70.20;;;;;;5014525;28;20501;-70
2024/03/20 12:36:59;;;;;;;5.50;3.70;;;34.40;65.90;;;;;;5015468;28;20808;-70
2024/03/20 12:39:29;;;;;;;4.67;4.13;;;35.00;61.50;;;;;;5009601;28;20623;-70